sensor_id;sensor_type;location;lat;lon;timestamp;pressure;altitude;pressure_sealevel;temperature;humidity
71970;BME280;59838;52.152;5.436;2023-02-13T00:00:04;103940.47;;;6.22;90.81
71970;BME280;59838;52.152;5.436;2023-02-13T00:02:32;103939.72;;;6.20;90.82
71970;BME280;59838;52.152;5.436;2023-02-13T00:04:58;103949.97;;;6.22;90.87
71970;BME280;59838;52.152;5.436;2023-02-13T00:07:24;103938.94;;;6.18;90.68
71970;BME280;59838;52.152;5.436;2023-02-13T00:09:51;103943.44;;;6.15;90.95
71970;BME280;59838;52.152;5.436;2023-02-13T00:12:17;103949.41;;;6.15;91.54
71970;BME280;59838;52.152;5.436;2023-02-13T00:14:44;103938.41;;;6.12;91.45
71970;BME280;59838;52.152;5.436;2023-02-13T00:17:10;103934.41;;;6.06;91.64
71970;BME280;59838;52.152;5.436;2023-02-13T00:19:36;103937.00;;;6.06;91.90
71970;BME280;59838;52.152;5.436;2023-02-13T00:22:03;103940.31;;;6.08;91.74
71970;BME280;59838;52.152;5.436;2023-02-13T00:24:29;103934.19;;;6.11;91.32
71970;BME280;59838;52.152;5.436;2023-02-13T00:26:56;103933.25;;;6.12;91.55
71970;BME280;59838;52.152;5.436;2023-02-13T00:29:22;103930.66;;;6.12;91.14
71970;BME280;59838;52.152;5.436;2023-02-13T00:31:49;103927.19;;;6.13;91.39
71970;BME280;59838;52.152;5.436;2023-02-13T00:34:15;103923.66;;;6.14;90.96
71970;BME280;59838;52.152;5.436;2023-02-13T00:36:42;103928.00;;;6.13;91.37
71970;BME280;59838;52.152;5.436;2023-02-13T00:39:11;103924.84;;;6.08;91.41
71970;BME280;59838;52.152;5.436;2023-02-13T00:41:38;103920.72;;;6.04;91.71
71970;BME280;59838;52.152;5.436;2023-02-13T00:44:05;103919.97;;;6.02;91.97
71970;BME280;59838;52.152;5.436;2023-02-13T00:46:31;103927.78;;;6.00;92.16
71970;BME280;59838;52.152;5.436;2023-02-13T00:48:57;103919.28;;;5.98;92.30
71970;BME280;59838;52.152;5.436;2023-02-13T00:51:24;103915.03;;;5.97;92.48
71970;BME280;59838;52.152;5.436;2023-02-13T00:53:50;103922.81;;;5.96;92.91
71970;BME280;59838;52.152;5.436;2023-02-13T00:56:17;103924.44;;;5.98;92.86
71970;BME280;59838;52.152;5.436;2023-02-13T00:58:43;103915.75;;;6.01;92.58
71970;BME280;59838;52.152;5.436;2023-02-13T01:01:10;103917.38;;;6.02;92.47
71970;BME280;59838;52.152;5.436;2023-02-13T01:03:36;103919.97;;;6.02;92.34
71970;BME280;59838;52.152;5.436;2023-02-13T01:06:03;103917.47;;;6.00;92.30
71970;BME280;59838;52.152;5.436;2023-02-13T01:08:30;103911.56;;;5.98;92.31
71970;BME280;59838;52.152;5.436;2023-02-13T01:10:57;103925.41;;;5.96;92.47
71970;BME280;59838;52.152;5.436;2023-02-13T01:13:25;103921.25;;;5.93;92.78
71970;BME280;59838;52.152;5.436;2023-02-13T01:15:51;103925.63;;;5.91;92.88
71970;BME280;59838;52.152;5.436;2023-02-13T01:18:19;103930.88;;;5.90;93.32
71970;BME280;59838;52.152;5.436;2023-02-13T01:20:55;103921.38;;;5.90;93.08
71970;BME280;59838;52.152;5.436;2023-02-13T01:23:22;103934.28;;;5.90;93.34
71970;BME280;59838;52.152;5.436;2023-02-13T01:25:48;103921.47;;;5.89;93.47
71970;BME280;59838;52.152;5.436;2023-02-13T01:28:17;103920.72;;;5.86;93.54
71970;BME280;59838;52.152;5.436;2023-02-13T01:30:43;103913.78;;;5.87;93.52
71970;BME280;59838;52.152;5.436;2023-02-13T01:33:10;103911.13;;;5.89;93.37
71970;BME280;59838;52.152;5.436;2023-02-13T01:35:40;103913.56;;;5.92;92.84
71970;BME280;59838;52.152;5.436;2023-02-13T01:38:06;103919.41;;;5.95;92.92
71970;BME280;59838;52.152;5.436;2023-02-13T01:40:33;103915.03;;;5.97;92.61
71970;BME280;59838;52.152;5.436;2023-02-13T01:42:59;103905.50;;;5.99;92.30
71970;BME280;59838;52.152;5.436;2023-02-13T01:45:29;103918.31;;;6.01;92.31
71970;BME280;59838;52.152;5.436;2023-02-13T01:47:59;103915.63;;;6.02;92.08
71970;BME280;59838;52.152;5.436;2023-02-13T01:50:34;103900.31;;;5.99;92.16
71970;BME280;59838;52.152;5.436;2023-02-13T01:53:17;103904.75;;;5.96;92.25
71970;BME280;59838;52.152;5.436;2023-02-13T01:55:50;103905.81;;;5.92;92.66
71970;BME280;59838;52.152;5.436;2023-02-13T01:58:21;103908.56;;;5.89;92.48
71970;BME280;59838;52.152;5.436;2023-02-13T02:00:49;103904.44;;;5.84;92.92
71970;BME280;59838;52.152;5.436;2023-02-13T02:03:37;103902.19;;;5.78;93.76
71970;BME280;59838;52.152;5.436;2023-02-13T02:06:07;103904.06;;;5.75;93.94
71970;BME280;59838;52.152;5.436;2023-02-13T02:08:36;103897.25;;;5.74;94.08
71970;BME280;59838;52.152;5.436;2023-02-13T02:11:10;103896.31;;;5.75;94.14
71970;BME280;59838;52.152;5.436;2023-02-13T02:13:40;103896.16;;;5.78;93.99
71970;BME280;59838;52.152;5.436;2023-02-13T02:16:08;103897.03;;;5.78;94.27
71970;BME280;59838;52.152;5.436;2023-02-13T02:18:34;103895.28;;;5.79;94.07
71970;BME280;59838;52.152;5.436;2023-02-13T02:21:19;103890.19;;;5.77;94.15
71970;BME280;59838;52.152;5.436;2023-02-13T02:29:34;103892.69;;;5.79;94.22
71970;BME280;59838;52.152;5.436;2023-02-13T02:32:13;103891.69;;;5.81;94.25
71970;BME280;59838;52.152;5.436;2023-02-13T02:46:31;103891.25;;;5.91;93.41
71970;BME280;59838;52.152;5.436;2023-02-13T02:49:05;103880.84;;;5.92;93.03
71970;BME280;59838;52.152;5.436;2023-02-13T02:57:23;103879.94;;;5.93;93.31
71970;BME280;59838;52.152;5.436;2023-02-13T02:59:51;103877.38;;;5.93;93.12
71970;BME280;59838;52.152;5.436;2023-02-13T03:02:36;103884.59;;;5.86;93.50
71970;BME280;59838;52.152;5.436;2023-02-13T03:05:28;103884.66;;;5.85;93.49
71970;BME280;59838;52.152;5.436;2023-02-13T03:08:15;103882.97;;;5.84;93.55
71970;BME280;59838;52.152;5.436;2023-02-13T03:11:02;103873.81;;;5.78;93.70
71970;BME280;59838;52.152;5.436;2023-02-13T03:13:48;103876.69;;;5.72;94.29
71970;BME280;59838;52.152;5.436;2023-02-13T03:16:18;103882.75;;;5.71;94.91
71970;BME280;59838;52.152;5.436;2023-02-13T03:19:05;103883.56;;;5.72;94.79
71970;BME280;59838;52.152;5.436;2023-02-13T03:22:05;103880.09;;;5.73;95.13
71970;BME280;59838;52.152;5.436;2023-02-13T03:24:53;103892.84;;;5.76;94.89
71970;BME280;59838;52.152;5.436;2023-02-13T03:33:46;103886.63;;;5.80;94.71
71970;BME280;59838;52.152;5.436;2023-02-13T03:42:11;103881.00;;;5.89;94.38
71970;BME280;59838;52.152;5.436;2023-02-13T03:44:46;103880.09;;;5.90;94.40
71970;BME280;59838;52.152;5.436;2023-02-13T03:47:34;103879.16;;;5.91;94.62
71970;BME280;59838;52.152;5.436;2023-02-13T03:50:02;103883.44;;;5.92;94.14
71970;BME280;59838;52.152;5.436;2023-02-13T03:55:16;103871.59;;;5.88;94.52
71970;BME280;59838;52.152;5.436;2023-02-13T03:58:08;103885.56;;;5.84;94.38
71970;BME280;59838;52.152;5.436;2023-02-13T04:00:57;103880.41;;;5.84;94.35
71970;BME280;59838;52.152;5.436;2023-02-13T04:03:36;103886.31;;;5.86;94.20
71970;BME280;59838;52.152;5.436;2023-02-13T04:06:13;103874.41;;;5.83;94.26
71970;BME280;59838;52.152;5.436;2023-02-13T04:08:41;103876.13;;;5.83;94.65
71970;BME280;59838;52.152;5.436;2023-02-13T04:11:16;103878.56;;;5.86;94.42
71970;BME280;59838;52.152;5.436;2023-02-13T04:13:56;103876.78;;;5.88;93.80
71970;BME280;59838;52.152;5.436;2023-02-13T04:16:33;103874.00;;;5.91;94.03
71970;BME280;59838;52.152;5.436;2023-02-13T04:19:01;103875.63;;;5.94;94.05
71970;BME280;59838;52.152;5.436;2023-02-13T04:21:34;103877.28;;;5.95;93.64
71970;BME280;59838;52.152;5.436;2023-02-13T04:24:02;103875.50;;;5.97;93.66
71970;BME280;59838;52.152;5.436;2023-02-13T04:26:41;103878.06;;;5.97;93.29
71970;BME280;59838;52.152;5.436;2023-02-13T04:29:08;103881.59;;;5.94;93.35
71970;BME280;59838;52.152;5.436;2023-02-13T04:31:34;103877.53;;;5.90;93.43
71970;BME280;59838;52.152;5.436;2023-02-13T04:34:01;103872.34;;;5.90;93.37
71970;BME280;59838;52.152;5.436;2023-02-13T04:36:28;103872.34;;;5.90;93.89
71970;BME280;59838;52.152;5.436;2023-02-13T04:38:55;103874.88;;;5.92;93.61
71970;BME280;59838;52.152;5.436;2023-02-13T04:41:21;103870.44;;;5.94;93.87
71970;BME280;59838;52.152;5.436;2023-02-13T04:43:48;103874.78;;;5.93;93.67
71970;BME280;59838;52.152;5.436;2023-02-13T04:46:14;103876.50;;;5.93;93.57
71970;BME280;59838;52.152;5.436;2023-02-13T04:48:40;103869.63;;;5.93;93.42
71970;BME280;59838;52.152;5.436;2023-02-13T04:51:07;103864.47;;;5.93;93.51
71970;BME280;59838;52.152;5.436;2023-02-13T04:53:33;103864.47;;;5.93;93.50
71970;BME280;59838;52.152;5.436;2023-02-13T04:56:00;103868.69;;;5.94;93.75
71970;BME280;59838;52.152;5.436;2023-02-13T04:58:26;103867.78;;;5.95;93.48
71970;BME280;59838;52.152;5.436;2023-02-13T05:00:53;103858.38;;;5.94;93.48
71970;BME280;59838;52.152;5.436;2023-02-13T05:03:20;103864.53;;;5.92;93.63
71970;BME280;59838;52.152;5.436;2023-02-13T05:05:47;103857.78;;;5.89;93.66
71970;BME280;59838;52.152;5.436;2023-02-13T05:08:14;103856.13;;;5.88;94.00
71970;BME280;59838;52.152;5.436;2023-02-13T05:10:40;103851.88;;;5.87;94.20
71970;BME280;59838;52.152;5.436;2023-02-13T05:13:06;103850.03;;;5.89;94.29
71970;BME280;59838;52.152;5.436;2023-02-13T05:15:33;103847.44;;;5.89;94.23
71970;BME280;59838;52.152;5.436;2023-02-13T05:17:59;103838.06;;;5.88;94.29
71970;BME280;59838;52.152;5.436;2023-02-13T05:20:26;103851.72;;;5.90;94.18
71970;BME280;59838;52.152;5.436;2023-02-13T05:22:53;103850.88;;;5.90;94.32
71970;BME280;59838;52.152;5.436;2023-02-13T05:25:40;103849.13;;;5.90;94.36
71970;BME280;59838;52.152;5.436;2023-02-13T05:28:07;103841.47;;;5.89;94.36
71970;BME280;59838;52.152;5.436;2023-02-13T05:30:54;103845.81;;;5.88;94.39
71970;BME280;59838;52.152;5.436;2023-02-13T05:33:21;103841.47;;;5.89;94.41
71970;BME280;59838;52.152;5.436;2023-02-13T05:35:47;103844.94;;;5.88;94.63
71970;BME280;59838;52.152;5.436;2023-02-13T05:38:14;103844.13;;;5.87;94.83
71970;BME280;59838;52.152;5.436;2023-02-13T05:40:40;103851.78;;;5.89;94.84
71970;BME280;59838;52.152;5.436;2023-02-13T05:43:06;103842.28;;;5.89;94.93
71970;BME280;59838;52.152;5.436;2023-02-13T05:45:33;103848.31;;;5.90;94.94
71970;BME280;59838;52.152;5.436;2023-02-13T05:47:59;103846.63;;;5.89;95.05
71970;BME280;59838;52.152;5.436;2023-02-13T05:50:26;103838.97;;;5.87;95.30
71970;BME280;59838;52.152;5.436;2023-02-13T05:52:52;103849.28;;;5.87;95.60
71970;BME280;59838;52.152;5.436;2023-02-13T05:55:18;103846.63;;;5.89;95.53
71970;BME280;59838;52.152;5.436;2023-02-13T05:57:45;103847.44;;;5.89;95.62
71970;BME280;59838;52.152;5.436;2023-02-13T06:00:12;103843.03;;;5.91;95.55
71970;BME280;59838;52.152;5.436;2023-02-13T06:02:38;103847.22;;;5.94;95.73
71970;BME280;59838;52.152;5.436;2023-02-13T06:05:05;103847.22;;;5.94;95.68
71970;BME280;59838;52.152;5.436;2023-02-13T06:07:32;103851.50;;;5.95;95.53
71970;BME280;59838;52.152;5.436;2023-02-13T06:09:58;103849.72;;;5.95;95.61
71970;BME280;59838;52.152;5.436;2023-02-13T06:12:25;103849.72;;;5.95;95.42
71970;BME280;59838;52.152;5.436;2023-02-13T06:14:51;103846.41;;;5.93;95.54
71970;BME280;59838;52.152;5.436;2023-02-13T06:17:18;103850.63;;;5.94;95.60
71970;BME280;59838;52.152;5.436;2023-02-13T06:19:44;103844.56;;;5.95;95.70
71970;BME280;59838;52.152;5.436;2023-02-13T06:22:10;103843.81;;;5.93;95.97
71970;BME280;59838;52.152;5.436;2023-02-13T06:24:37;103839.50;;;5.94;95.95
71970;BME280;59838;52.152;5.436;2023-02-13T06:27:03;103841.41;;;5.90;96.25
71970;BME280;59838;52.152;5.436;2023-02-13T06:29:30;103847.59;;;5.86;96.29
71970;BME280;59838;52.152;5.436;2023-02-13T06:31:58;103850.19;;;5.86;96.66
71970;BME280;59838;52.152;5.436;2023-02-13T06:34:24;103851.03;;;5.86;96.90
71970;BME280;59838;52.152;5.436;2023-02-13T06:36:51;103851.88;;;5.87;96.96
71970;BME280;59838;52.152;5.436;2023-02-13T06:39:18;103849.28;;;5.87;97.14
71970;BME280;59838;52.152;5.436;2023-02-13T06:41:44;103847.69;;;5.84;97.21
71970;BME280;59838;52.152;5.436;2023-02-13T06:44:10;103863.16;;;5.84;97.19
71970;BME280;59838;52.152;5.436;2023-02-13T06:46:37;103866.66;;;5.83;97.53
71970;BME280;59838;52.152;5.436;2023-02-13T06:49:03;103859.00;;;5.82;98.12
71970;BME280;59838;52.152;5.436;2023-02-13T06:51:30;103854.75;;;5.81;98.02
71970;BME280;59838;52.152;5.436;2023-02-13T06:53:56;103856.44;;;5.82;98.06
71970;BME280;59838;52.152;5.436;2023-02-13T06:56:23;103860.72;;;5.81;98.29
71970;BME280;59838;52.152;5.436;2023-02-13T06:58:51;103863.31;;;5.81;98.50
71970;BME280;59838;52.152;5.436;2023-02-13T07:01:17;103859.75;;;5.84;98.50
71970;BME280;59838;52.152;5.436;2023-02-13T07:03:44;103868.41;;;5.83;98.80
71970;BME280;59838;52.152;5.436;2023-02-13T07:06:16;103863.94;;;5.86;98.98
71970;BME280;59838;52.152;5.436;2023-02-13T07:08:43;103868.09;;;5.89;99.34
71970;BME280;59838;52.152;5.436;2023-02-13T07:11:18;103865.22;;;5.95;99.30
71970;BME280;59838;52.152;5.436;2023-02-13T07:13:45;103877.25;;;5.96;99.25
71970;BME280;59838;52.152;5.436;2023-02-13T07:16:12;103877.09;;;5.99;98.61
71970;BME280;59838;52.152;5.436;2023-02-13T07:18:38;103878.66;;;6.02;98.70
71970;BME280;59838;52.152;5.436;2023-02-13T07:21:05;103878.59;;;6.03;98.59
71970;BME280;59838;52.152;5.436;2023-02-13T07:23:32;103880.28;;;6.04;98.42
71970;BME280;59838;52.152;5.436;2023-02-13T07:25:59;103872.38;;;6.08;98.44
71970;BME280;59838;52.152;5.436;2023-02-13T07:28:27;103874.88;;;6.09;98.26
71970;BME280;59838;52.152;5.436;2023-02-13T07:30:54;103869.66;;;6.11;98.03
71970;BME280;59838;52.152;5.436;2023-02-13T07:33:22;103872.22;;;6.11;98.11
71970;BME280;59838;52.152;5.436;2023-02-13T07:35:50;103864.41;;;6.12;98.33
71970;BME280;59838;52.152;5.436;2023-02-13T07:38:17;103865.16;;;6.14;98.15
71970;BME280;59838;52.152;5.436;2023-02-13T07:40:44;103864.16;;;6.17;98.10
71970;BME280;59838;52.152;5.436;2023-02-13T07:43:12;103870.09;;;6.19;98.19
71970;BME280;59838;52.152;5.436;2023-02-13T07:45:38;103874.25;;;6.21;98.21
71970;BME280;59838;52.152;5.436;2023-02-13T07:48:05;103871.59;;;6.23;97.99
71970;BME280;59838;52.152;5.436;2023-02-13T07:50:31;103878.28;;;6.27;98.27
71970;BME280;59838;52.152;5.436;2023-02-13T07:53:00;103876.34;;;6.31;97.97
71970;BME280;59838;52.152;5.436;2023-02-13T07:55:28;103876.94;;;6.36;98.07
71970;BME280;59838;52.152;5.436;2023-02-13T07:57:55;103877.53;;;6.41;97.97
71970;BME280;59838;52.152;5.436;2023-02-13T08:00:22;103879.97;;;6.44;97.74
71970;BME280;59838;52.152;5.436;2023-02-13T08:02:48;103885.72;;;6.49;98.14
71970;BME280;59838;52.152;5.436;2023-02-13T08:05:15;103884.66;;;6.53;97.46
71970;BME280;59838;52.152;5.436;2023-02-13T08:07:41;103888.66;;;6.59;96.89
71970;BME280;59838;52.152;5.436;2023-02-13T08:10:10;103889.34;;;6.63;97.17
71970;BME280;59838;52.152;5.436;2023-02-13T08:12:56;103896.84;;;6.67;97.00
71970;BME280;59838;52.152;5.436;2023-02-13T08:15:22;103894.00;;;6.72;97.03
71970;BME280;59838;52.152;5.436;2023-02-13T08:17:49;103901.53;;;6.76;96.97
71970;BME280;59838;52.152;5.436;2023-02-13T08:20:15;103901.38;;;6.80;96.81
71970;BME280;59838;52.152;5.436;2023-02-13T08:22:42;103908.06;;;6.84;96.69
71970;BME280;59838;52.152;5.436;2023-02-13T08:25:08;103909.63;;;6.86;96.84
71970;BME280;59838;52.152;5.436;2023-02-13T08:27:35;103899.13;;;6.89;96.81
71970;BME280;59838;52.152;5.436;2023-02-13T08:30:02;103901.47;;;6.94;96.75
71970;BME280;59838;52.152;5.436;2023-02-13T08:32:29;103902.97;;;6.98;97.09
71970;BME280;59838;52.152;5.436;2023-02-13T08:34:55;103901.88;;;7.02;96.38
71970;BME280;59838;52.152;5.436;2023-02-13T08:37:22;103894.69;;;7.07;96.27
71970;BME280;59838;52.152;5.436;2023-02-13T08:39:49;103902.03;;;7.15;96.39
71970;BME280;59838;52.152;5.436;2023-02-13T08:42:15;103905.28;;;7.19;96.25
71970;BME280;59838;52.152;5.436;2023-02-13T08:44:42;103898.88;;;7.26;95.92
71970;BME280;59838;52.152;5.436;2023-02-13T08:47:09;103895.19;;;7.30;95.65
71970;BME280;59838;52.152;5.436;2023-02-13T08:49:35;103900.03;;;7.36;95.43
71970;BME280;59838;52.152;5.436;2023-02-13T08:52:02;103901.34;;;7.43;95.43
71970;BME280;59838;52.152;5.436;2023-02-13T08:54:29;103899.19;;;7.52;95.15
71970;BME280;59838;52.152;5.436;2023-02-13T08:56:56;103900.81;;;7.53;94.55
71970;BME280;59838;52.152;5.436;2023-02-13T08:59:23;103901.38;;;7.58;94.27
71970;BME280;59838;52.152;5.436;2023-02-13T09:01:50;103909.56;;;7.66;94.51
71970;BME280;59838;52.152;5.436;2023-02-13T09:04:16;103903.28;;;7.70;94.14
71970;BME280;59838;52.152;5.436;2023-02-13T09:06:46;103905.72;;;7.73;93.71
71970;BME280;59838;52.152;5.436;2023-02-13T09:09:12;103906.44;;;7.75;93.50
71970;BME280;59838;52.152;5.436;2023-02-13T09:11:38;103899.25;;;7.80;93.40
71970;BME280;59838;52.152;5.436;2023-02-13T09:14:05;103899.63;;;7.88;93.26
71970;BME280;59838;52.152;5.436;2023-02-13T09:16:31;103895.69;;;7.97;92.92
71970;BME280;59838;52.152;5.436;2023-02-13T09:18:58;103899.31;;;8.09;92.56
71970;BME280;59838;52.152;5.436;2023-02-13T09:21:24;103889.69;;;8.11;91.64
71970;BME280;59838;52.152;5.436;2023-02-13T09:23:51;103902.72;;;8.10;91.58
71970;BME280;59838;52.152;5.436;2023-02-13T09:26:18;103909.03;;;8.20;91.48
71970;BME280;59838;52.152;5.436;2023-02-13T09:28:46;103897.47;;;8.26;91.05
71970;BME280;59838;52.152;5.436;2023-02-13T09:31:15;103898.38;;;8.39;91.71
71970;BME280;59838;52.152;5.436;2023-02-13T09:33:43;103897.59;;;8.53;91.40
71970;BME280;59838;52.152;5.436;2023-02-13T09:36:13;103892.06;;;8.59;90.62
71970;BME280;59838;52.152;5.436;2023-02-13T09:38:41;103897.78;;;8.64;89.92
71970;BME280;59838;52.152;5.436;2023-02-13T09:41:14;103893.13;;;8.69;89.79
71970;BME280;59838;52.152;5.436;2023-02-13T09:43:46;103893.41;;;8.79;89.87
71970;BME280;59838;52.152;5.436;2023-02-13T09:46:20;103884.53;;;8.83;88.83
71970;BME280;59838;52.152;5.436;2023-02-13T09:48:52;103891.44;;;8.83;88.32
71970;BME280;59838;52.152;5.436;2023-02-13T09:51:21;103892.66;;;8.91;88.24
71970;BME280;59838;52.152;5.436;2023-02-13T09:53:54;103893.00;;;9.00;88.16
71970;BME280;59838;52.152;5.436;2023-02-13T09:59:01;103890.75;;;9.35;88.04
71970;BME280;59838;52.152;5.436;2023-02-13T10:01:44;103891.38;;;9.39;86.74
71970;BME280;59838;52.152;5.436;2023-02-13T10:09:55;103898.28;;;9.25;85.55
71970;BME280;59838;52.152;5.436;2023-02-13T10:12:42;103898.72;;;9.05;85.55
71970;BME280;59838;52.152;5.436;2023-02-13T10:15:20;103891.19;;;9.14;86.39
71970;BME280;59838;52.152;5.436;2023-02-13T10:18:14;103889.28;;;9.31;85.40
71970;BME280;59838;52.152;5.436;2023-02-13T10:20:44;103893.00;;;9.27;85.76
71970;BME280;59838;52.152;5.436;2023-02-13T10:25:51;103896.47;;;9.13;84.89
71970;BME280;59838;52.152;5.436;2023-02-13T10:28:51;103892.75;;;9.17;85.95
71970;BME280;59838;52.152;5.436;2023-02-13T10:31:41;103893.06;;;9.40;85.75
71970;BME280;59838;52.152;5.436;2023-02-13T10:34:16;103880.63;;;9.58;85.46
71970;BME280;59838;52.152;5.436;2023-02-13T10:36:47;103888.16;;;9.75;85.38
71970;BME280;59838;52.152;5.436;2023-02-13T10:39:24;103877.13;;;9.84;85.25
71970;BME280;59838;52.152;5.436;2023-02-13T10:41:53;103883.81;;;10.01;85.00
71970;BME280;59838;52.152;5.436;2023-02-13T10:44:35;103877.13;;;10.10;83.65
71970;BME280;59838;52.152;5.436;2023-02-13T10:49:53;103871.44;;;10.05;83.81
71970;BME280;59838;52.152;5.436;2023-02-13T10:58:21;103864.78;;;9.75;82.56
71970;BME280;59838;52.152;5.436;2023-02-13T11:01:02;103872.34;;;9.65;82.39
71970;BME280;59838;52.152;5.436;2023-02-13T11:03:30;103872.34;;;9.65;83.21
71970;BME280;59838;52.152;5.436;2023-02-13T11:05:58;103861.56;;;9.84;83.81
71970;BME280;59838;52.152;5.436;2023-02-13T11:08:33;103863.75;;;9.91;83.62
71970;BME280;59838;52.152;5.436;2023-02-13T11:11:00;103856.06;;;9.89;83.57
71970;BME280;59838;52.152;5.436;2023-02-13T11:13:29;103862.28;;;9.99;83.41
71970;BME280;59838;52.152;5.436;2023-02-13T11:16:07;103861.25;;;10.15;83.45
71970;BME280;59838;52.152;5.436;2023-02-13T11:18:37;103849.28;;;10.25;83.06
71970;BME280;59838;52.152;5.436;2023-02-13T11:21:12;103845.16;;;10.35;82.52
71970;BME280;59838;52.152;5.436;2023-02-13T11:23:42;103848.97;;;10.42;82.04
71970;BME280;59838;52.152;5.436;2023-02-13T11:26:30;103844.06;;;10.51;81.85
71970;BME280;59838;52.152;5.436;2023-02-13T11:29:05;103841.47;;;10.51;81.21
71970;BME280;59838;52.152;5.436;2023-02-13T11:31:41;103842.06;;;10.54;80.42
71970;BME280;59838;52.152;5.436;2023-02-13T11:34:24;103842.53;;;10.48;80.15
71970;BME280;59838;52.152;5.436;2023-02-13T11:36:53;103838.97;;;10.49;80.18
71970;BME280;59838;52.152;5.436;2023-02-13T11:39:21;103828.38;;;10.39;79.24
71970;BME280;59838;52.152;5.436;2023-02-13T11:41:48;103832.44;;;10.31;79.93
71970;BME280;59838;52.152;5.436;2023-02-13T11:44:24;103831.28;;;10.22;81.13
71970;BME280;59838;52.152;5.436;2023-02-13T11:46:54;103833.47;;;10.41;79.95
71970;BME280;59838;52.152;5.436;2023-02-13T11:49:22;103830.38;;;10.36;80.91
71970;BME280;59838;52.152;5.436;2023-02-13T11:51:52;103825.53;;;10.55;81.06
71970;BME280;59838;52.152;5.436;2023-02-13T11:56:51;103824.78;;;10.66;80.27
71970;BME280;59838;52.152;5.436;2023-02-13T11:59:44;103819.81;;;10.63;80.05
71970;BME280;59838;52.152;5.436;2023-02-13T12:02:47;103807.31;;;10.68;79.54
71970;BME280;59838;52.152;5.436;2023-02-13T12:05:19;103796.75;;;10.83;79.73
71970;BME280;59838;52.152;5.436;2023-02-13T12:07:46;103795.00;;;10.70;78.54
71970;BME280;59838;52.152;5.436;2023-02-13T12:15:31;103795.06;;;10.82;78.37
71970;BME280;59838;52.152;5.436;2023-02-13T12:20:42;103794.63;;;10.88;78.62
71970;BME280;59838;52.152;5.436;2023-02-13T12:23:54;103790.09;;;10.78;77.58
71970;BME280;59838;52.152;5.436;2023-02-13T12:26:37;103788.00;;;10.84;78.39
71970;BME280;59838;52.152;5.436;2023-02-13T12:34:23;103789.41;;;11.12;77.02
71970;BME280;59838;52.152;5.436;2023-02-13T12:39:57;103793.34;;;11.29;77.07
71970;BME280;59838;52.152;5.436;2023-02-13T13:02:00;103779.28;;;10.96;76.26
71970;BME280;59838;52.152;5.436;2023-02-13T13:12:44;103753.91;;;11.11;76.91
71970;BME280;59838;52.152;5.436;2023-02-13T13:26:46;103739.22;;;10.98;74.99
71970;BME280;59838;52.152;5.436;2023-02-13T13:29:21;103745.97;;;11.01;75.95
71970;BME280;59838;52.152;5.436;2023-02-13T13:31:55;103733.94;;;11.11;76.95
71970;BME280;59838;52.152;5.436;2023-02-13T13:34:25;103733.22;;;11.21;77.18
71970;BME280;59838;52.152;5.436;2023-02-13T13:45:02;103722.56;;;11.12;75.87
71970;BME280;59838;52.152;5.436;2023-02-13T13:50:20;103715.00;;;11.09;75.71
71970;BME280;59838;52.152;5.436;2023-02-13T13:53:07;103718.66;;;11.07;76.25
71970;BME280;59838;52.152;5.436;2023-02-13T13:55:59;103708.75;;;11.12;76.98
71970;BME280;59838;52.152;5.436;2023-02-13T13:58:39;103710.03;;;11.18;76.95
71970;BME280;59838;52.152;5.436;2023-02-13T14:14:52;103693.38;;;11.09;76.19
71970;BME280;59838;52.152;5.436;2023-02-13T14:20:32;103694.91;;;11.00;76.07
71970;BME280;59838;52.152;5.436;2023-02-13T14:23:25;103697.03;;;11.06;75.59
71970;BME280;59838;52.152;5.436;2023-02-13T14:26:18;103698.56;;;11.09;76.93
71970;BME280;59838;52.152;5.436;2023-02-13T14:31:22;103684.97;;;11.05;75.96
71970;BME280;59838;52.152;5.436;2023-02-13T14:33:58;103689.22;;;11.06;75.99
71970;BME280;59838;52.152;5.436;2023-02-13T14:36:31;103695.25;;;11.07;75.97
71970;BME280;59838;52.152;5.436;2023-02-13T14:39:02;103686.88;;;11.03;75.71
71970;BME280;59838;52.152;5.436;2023-02-13T14:42:02;103683.28;;;11.04;76.35
71970;BME280;59838;52.152;5.436;2023-02-13T14:44:46;103692.19;;;11.02;75.61
71970;BME280;59838;52.152;5.436;2023-02-13T14:50:05;103684.16;;;11.05;75.70
71970;BME280;59838;52.152;5.436;2023-02-13T14:52:37;103682.38;;;11.05;75.71
71970;BME280;59838;52.152;5.436;2023-02-13T14:55:18;103677.38;;;11.02;76.03
71970;BME280;59838;52.152;5.436;2023-02-13T14:58:07;103679.88;;;11.04;75.99
71970;BME280;59838;52.152;5.436;2023-02-13T15:00:43;103674.78;;;11.02;76.55
71970;BME280;59838;52.152;5.436;2023-02-13T15:03:23;103668.88;;;11.00;76.46
71970;BME280;59838;52.152;5.436;2023-02-13T15:05:53;103672.41;;;10.99;76.60
71970;BME280;59838;52.152;5.436;2023-02-13T15:08:25;103672.63;;;10.96;76.03
71970;BME280;59838;52.152;5.436;2023-02-13T15:10:55;103665.06;;;10.93;76.42
71970;BME280;59838;52.152;5.436;2023-02-13T15:13:30;103672.06;;;10.92;76.66
71970;BME280;59838;52.152;5.436;2023-02-13T15:18:30;103677.47;;;10.89;77.33
71970;BME280;59838;52.152;5.436;2023-02-13T15:20:58;103675.00;;;10.88;77.46
71970;BME280;59838;52.152;5.436;2023-02-13T15:23:31;103673.44;;;10.85;77.37
71970;BME280;59838;52.152;5.436;2023-02-13T15:26:15;103667.75;;;10.80;77.69
71970;BME280;59838;52.152;5.436;2023-02-13T15:28:57;103676.84;;;10.74;78.00
71970;BME280;59838;52.152;5.436;2023-02-13T15:31:29;103665.97;;;10.69;78.14
71970;BME280;59838;52.152;5.436;2023-02-13T15:33:56;103667.13;;;10.65;77.96
71970;BME280;59838;52.152;5.436;2023-02-13T15:36:25;103665.72;;;10.61;78.15
71970;BME280;59838;52.152;5.436;2023-02-13T15:38:59;103667.09;;;10.54;78.74
71970;BME280;59838;52.152;5.436;2023-02-13T15:41:33;103670.00;;;10.49;78.81
71970;BME280;59838;52.152;5.436;2023-02-13T15:44:01;103666.00;;;10.45;78.98
71970;BME280;59838;52.152;5.436;2023-02-13T15:46:33;103661.84;;;10.42;79.38
71970;BME280;59838;52.152;5.436;2023-02-13T15:49:08;103666.53;;;10.37;79.41